sensor_id;sensor_type;location;lat;lon;timestamp;temperature;humidity
2226;DHT22;1119;48.288;8.726;2023-04-15T00:01:18;5.40;90.80
2226;DHT22;1119;48.288;8.726;2023-04-15T00:04:06;5.40;91.20
2226;DHT22;1119;48.288;8.726;2023-04-15T00:06:55;5.50;91.60
2226;DHT22;1119;48.288;8.726;2023-04-15T00:09:43;5.60;91.80
2226;DHT22;1119;48.288;8.726;2023-04-15T00:12:31;5.60;91.60
2226;DHT22;1119;48.288;8.726;2023-04-15T00:15:19;5.70;91.60
2226;DHT22;1119;48.288;8.726;2023-04-15T00:18:07;5.70;91.60
2226;DHT22;1119;48.288;8.726;2023-04-15T00:20:54;5.70;91.60
2226;DHT22;1119;48.288;8.726;2023-04-15T00:23:43;5.70;91.60
2226;DHT22;1119;48.288;8.726;2023-04-15T00:26:34;5.70;91.50
2226;DHT22;1119;48.288;8.726;2023-04-15T00:29:22;5.70;91.40
2226;DHT22;1119;48.288;8.726;2023-04-15T00:32:10;5.70;91.20
2226;DHT22;1119;48.288;8.726;2023-04-15T00:35:00;5.70;91.10
2226;DHT22;1119;48.288;8.726;2023-04-15T00:37:48;5.70;90.90
2226;DHT22;1119;48.288;8.726;2023-04-15T00:40:38;5.60;90.50
2226;DHT22;1119;48.288;8.726;2023-04-15T00:43:26;5.50;90.60
2226;DHT22;1119;48.288;8.726;2023-04-15T00:46:15;5.40;90.80
2226;DHT22;1119;48.288;8.726;2023-04-15T00:49:04;5.30;91.00
2226;DHT22;1119;48.288;8.726;2023-04-15T00:51:52;5.20;91.20
2226;DHT22;1119;48.288;8.726;2023-04-15T00:54:40;5.20;91.40
2226;DHT22;1119;48.288;8.726;2023-04-15T00:57:30;5.20;91.70
2226;DHT22;1119;48.288;8.726;2023-04-15T01:00:18;5.20;91.80
2226;DHT22;1119;48.288;8.726;2023-04-15T01:03:07;5.30;91.90
2226;DHT22;1119;48.288;8.726;2023-04-15T01:05:55;5.40;91.80
2226;DHT22;1119;48.288;8.726;2023-04-15T01:08:44;5.40;91.70
2226;DHT22;1119;48.288;8.726;2023-04-15T01:11:31;5.40;91.70
2226;DHT22;1119;48.288;8.726;2023-04-15T01:14:21;5.40;91.60
2226;DHT22;1119;48.288;8.726;2023-04-15T01:17:09;5.20;91.80
2226;DHT22;1119;48.288;8.726;2023-04-15T01:19:59;5.20;92.00
2226;DHT22;1119;48.288;8.726;2023-04-15T01:22:50;5.00;92.20
2226;DHT22;1119;48.288;8.726;2023-04-15T01:25:40;5.00;92.50
2226;DHT22;1119;48.288;8.726;2023-04-15T01:28:28;4.90;92.70
2226;DHT22;1119;48.288;8.726;2023-04-15T01:31:17;4.90;93.20
2226;DHT22;1119;48.288;8.726;2023-04-15T01:34:04;4.80;93.70
2226;DHT22;1119;48.288;8.726;2023-04-15T01:37:11;4.80;94.00
2226;DHT22;1119;48.288;8.726;2023-04-15T01:39:58;4.90;94.20
2226;DHT22;1119;48.288;8.726;2023-04-15T01:42:47;4.90;94.30
2226;DHT22;1119;48.288;8.726;2023-04-15T01:45:36;4.90;94.30
2226;DHT22;1119;48.288;8.726;2023-04-15T01:48:25;5.00;94.40
2226;DHT22;1119;48.288;8.726;2023-04-15T01:51:14;5.10;94.30
2226;DHT22;1119;48.288;8.726;2023-04-15T01:54:03;5.10;94.20
2226;DHT22;1119;48.288;8.726;2023-04-15T01:56:52;5.10;94.20
2226;DHT22;1119;48.288;8.726;2023-04-15T01:59:42;5.10;94.10
2226;DHT22;1119;48.288;8.726;2023-04-15T02:02:31;5.10;94.30
2226;DHT22;1119;48.288;8.726;2023-04-15T02:05:20;5.00;94.50
2226;DHT22;1119;48.288;8.726;2023-04-15T02:08:09;4.90;94.80
2226;DHT22;1119;48.288;8.726;2023-04-15T02:10:59;4.70;95.30
2226;DHT22;1119;48.288;8.726;2023-04-15T02:13:49;4.50;95.60
2226;DHT22;1119;48.288;8.726;2023-04-15T02:16:40;4.30;96.40
2226;DHT22;1119;48.288;8.726;2023-04-15T02:19:29;4.20;97.40
2226;DHT22;1119;48.288;8.726;2023-04-15T02:22:18;4.00;98.20
2226;DHT22;1119;48.288;8.726;2023-04-15T02:25:08;3.80;99.20
2226;DHT22;1119;48.288;8.726;2023-04-15T02:27:57;3.70;99.90
2226;DHT22;1119;48.288;8.726;2023-04-15T02:30:47;3.60;99.90
2226;DHT22;1119;48.288;8.726;2023-04-15T02:33:38;3.50;99.90
2226;DHT22;1119;48.288;8.726;2023-04-15T02:36:27;3.50;99.90
2226;DHT22;1119;48.288;8.726;2023-04-15T02:39:17;3.40;99.90
2226;DHT22;1119;48.288;8.726;2023-04-15T02:42:06;3.50;99.90
2226;DHT22;1119;48.288;8.726;2023-04-15T02:44:55;3.50;99.90
2226;DHT22;1119;48.288;8.726;2023-04-15T02:47:50;3.50;99.90
2226;DHT22;1119;48.288;8.726;2023-04-15T02:50:40;3.60;99.90
2226;DHT22;1119;48.288;8.726;2023-04-15T02:53:31;3.60;99.90
2226;DHT22;1119;48.288;8.726;2023-04-15T02:56:20;3.50;99.90
2226;DHT22;1119;48.288;8.726;2023-04-15T02:59:11;3.60;99.90
2226;DHT22;1119;48.288;8.726;2023-04-15T03:02:00;3.60;99.90
2226;DHT22;1119;48.288;8.726;2023-04-15T03:04:49;3.60;99.90
2226;DHT22;1119;48.288;8.726;2023-04-15T03:07:39;3.70;99.90
2226;DHT22;1119;48.288;8.726;2023-04-15T03:10:28;3.70;99.90
2226;DHT22;1119;48.288;8.726;2023-04-15T03:13:17;3.80;99.90
2226;DHT22;1119;48.288;8.726;2023-04-15T03:16:06;3.80;99.90
2226;DHT22;1119;48.288;8.726;2023-04-15T03:18:55;3.70;99.90
2226;DHT22;1119;48.288;8.726;2023-04-15T03:21:45;3.70;99.90
2226;DHT22;1119;48.288;8.726;2023-04-15T03:24:36;3.60;99.90
2226;DHT22;1119;48.288;8.726;2023-04-15T03:27:25;3.60;99.90
2226;DHT22;1119;48.288;8.726;2023-04-15T03:30:17;3.50;99.90
2226;DHT22;1119;48.288;8.726;2023-04-15T03:33:06;3.40;99.90
2226;DHT22;1119;48.288;8.726;2023-04-15T03:35:56;3.40;99.90
2226;DHT22;1119;48.288;8.726;2023-04-15T03:38:45;3.30;99.90
2226;DHT22;1119;48.288;8.726;2023-04-15T03:41:36;3.30;99.90
2226;DHT22;1119;48.288;8.726;2023-04-15T03:44:25;3.20;99.90
2226;DHT22;1119;48.288;8.726;2023-04-15T03:47:14;3.30;99.90
2226;DHT22;1119;48.288;8.726;2023-04-15T03:50:04;3.20;99.90
2226;DHT22;1119;48.288;8.726;2023-04-15T03:52:53;3.40;99.90
2226;DHT22;1119;48.288;8.726;2023-04-15T03:55:42;3.40;99.90
2226;DHT22;1119;48.288;8.726;2023-04-15T03:58:33;3.50;99.90
2226;DHT22;1119;48.288;8.726;2023-04-15T04:01:22;3.50;99.90
2226;DHT22;1119;48.288;8.726;2023-04-15T04:04:10;3.60;99.90
2226;DHT22;1119;48.288;8.726;2023-04-15T04:06:59;3.60;99.90
2226;DHT22;1119;48.288;8.726;2023-04-15T04:09:48;3.50;99.90
2226;DHT22;1119;48.288;8.726;2023-04-15T04:12:37;3.40;99.90
2226;DHT22;1119;48.288;8.726;2023-04-15T04:15:28;3.30;99.90
2226;DHT22;1119;48.288;8.726;2023-04-15T04:18:16;3.20;99.90
2226;DHT22;1119;48.288;8.726;2023-04-15T04:21:05;3.20;99.90
2226;DHT22;1119;48.288;8.726;2023-04-15T04:23:54;3.10;99.90
2226;DHT22;1119;48.288;8.726;2023-04-15T04:26:45;3.10;99.90
2226;DHT22;1119;48.288;8.726;2023-04-15T04:29:34;3.20;99.90
2226;DHT22;1119;48.288;8.726;2023-04-15T04:32:25;3.20;99.90
2226;DHT22;1119;48.288;8.726;2023-04-15T04:35:13;3.30;99.90
2226;DHT22;1119;48.288;8.726;2023-04-15T04:38:03;3.40;99.90
2226;DHT22;1119;48.288;8.726;2023-04-15T04:40:52;3.50;99.90
2226;DHT22;1119;48.288;8.726;2023-04-15T04:43:41;3.50;99.90
2226;DHT22;1119;48.288;8.726;2023-04-15T04:46:30;3.50;99.90
2226;DHT22;1119;48.288;8.726;2023-04-15T04:49:20;3.50;99.90
2226;DHT22;1119;48.288;8.726;2023-04-15T04:52:09;3.50;99.90
2226;DHT22;1119;48.288;8.726;2023-04-15T04:54:57;3.50;99.90
2226;DHT22;1119;48.288;8.726;2023-04-15T04:57:46;3.60;99.90
2226;DHT22;1119;48.288;8.726;2023-04-15T05:00:35;3.60;99.90
2226;DHT22;1119;48.288;8.726;2023-04-15T05:03:24;3.60;99.90
2226;DHT22;1119;48.288;8.726;2023-04-15T05:06:15;3.60;99.90
2226;DHT22;1119;48.288;8.726;2023-04-15T05:09:03;3.60;99.90
2226;DHT22;1119;48.288;8.726;2023-04-15T05:11:52;3.70;99.90
2226;DHT22;1119;48.288;8.726;2023-04-15T05:14:43;3.80;99.90
2226;DHT22;1119;48.288;8.726;2023-04-15T05:17:33;3.00;99.90
2226;DHT22;1119;48.288;8.726;2023-04-15T05:20:22;3.90;99.90
2226;DHT22;1119;48.288;8.726;2023-04-15T05:23:12;4.00;99.90
2226;DHT22;1119;48.288;8.726;2023-04-15T05:26:01;4.00;99.90
2226;DHT22;1119;48.288;8.726;2023-04-15T05:28:50;4.00;99.90
2226;DHT22;1119;48.288;8.726;2023-04-15T05:31:39;3.90;99.90
2226;DHT22;1119;48.288;8.726;2023-04-15T05:34:28;3.90;99.90
2226;DHT22;1119;48.288;8.726;2023-04-15T05:37:17;3.90;99.90
2226;DHT22;1119;48.288;8.726;2023-04-15T05:40:09;4.00;99.90
2226;DHT22;1119;48.288;8.726;2023-04-15T05:42:58;4.00;99.90
2226;DHT22;1119;48.288;8.726;2023-04-15T05:45:47;4.10;99.90
2226;DHT22;1119;48.288;8.726;2023-04-15T05:48:36;4.30;99.90
2226;DHT22;1119;48.288;8.726;2023-04-15T05:51:25;4.40;99.90
2226;DHT22;1119;48.288;8.726;2023-04-15T05:54:14;4.70;99.90
2226;DHT22;1119;48.288;8.726;2023-04-15T05:57:04;5.00;99.90
2226;DHT22;1119;48.288;8.726;2023-04-15T05:59:54;5.80;99.90
2226;DHT22;1119;48.288;8.726;2023-04-15T06:02:44;7.30;99.90
2226;DHT22;1119;48.288;8.726;2023-04-15T06:05:33;8.90;96.40
2226;DHT22;1119;48.288;8.726;2023-04-15T06:08:22;10.50;91.20
2226;DHT22;1119;48.288;8.726;2023-04-15T06:11:10;12.00;83.50
2226;DHT22;1119;48.288;8.726;2023-04-15T06:14:01;13.50;74.90
2226;DHT22;1119;48.288;8.726;2023-04-15T06:16:49;15.10;66.50
2226;DHT22;1119;48.288;8.726;2023-04-15T06:19:38;16.40;58.90
2226;DHT22;1119;48.288;8.726;2023-04-15T06:22:27;17.40;54.80
2226;DHT22;1119;48.288;8.726;2023-04-15T06:25:16;18.20;52.10
2226;DHT22;1119;48.288;8.726;2023-04-15T06:28:05;18.70;49.40
2226;DHT22;1119;48.288;8.726;2023-04-15T06:30:56;19.10;47.50
2226;DHT22;1119;48.288;8.726;2023-04-15T06:33:45;19.10;46.70
2226;DHT22;1119;48.288;8.726;2023-04-15T06:36:33;19.60;46.10
2226;DHT22;1119;48.288;8.726;2023-04-15T06:39:22;19.90;45.60
2226;DHT22;1119;48.288;8.726;2023-04-15T06:42:11;20.20;44.50
2226;DHT22;1119;48.288;8.726;2023-04-15T06:45:00;20.10;44.60
2226;DHT22;1119;48.288;8.726;2023-04-15T06:47:51;20.20;44.30
2226;DHT22;1119;48.288;8.726;2023-04-15T06:50:39;19.90;44.00
2226;DHT22;1119;48.288;8.726;2023-04-15T06:53:28;19.40;44.60
2226;DHT22;1119;48.288;8.726;2023-04-15T06:56:17;18.90;44.40
2226;DHT22;1119;48.288;8.726;2023-04-15T06:59:06;18.20;43.90
2226;DHT22;1119;48.288;8.726;2023-04-15T07:01:55;17.10;45.00
2226;DHT22;1119;48.288;8.726;2023-04-15T07:04:45;16.00;46.10
2226;DHT22;1119;48.288;8.726;2023-04-15T07:07:34;15.00;48.00
2226;DHT22;1119;48.288;8.726;2023-04-15T07:10:23;14.40;50.10
2226;DHT22;1119;48.288;8.726;2023-04-15T07:13:12;14.20;50.90
2226;DHT22;1119;48.288;8.726;2023-04-15T07:16:01;14.00;51.60
2226;DHT22;1119;48.288;8.726;2023-04-15T07:18:50;14.10;51.90
2226;DHT22;1119;48.288;8.726;2023-04-15T07:21:40;14.30;52.10
2226;DHT22;1119;48.288;8.726;2023-04-15T07:24:29;14.10;51.30
2226;DHT22;1119;48.288;8.726;2023-04-15T07:27:18;14.00;50.40
2226;DHT22;1119;48.288;8.726;2023-04-15T07:30:08;14.20;50.50
2226;DHT22;1119;48.288;8.726;2023-04-15T07:32:57;14.40;50.60
2226;DHT22;1119;48.288;8.726;2023-04-15T07:35:46;14.70;50.10
2226;DHT22;1119;48.288;8.726;2023-04-15T07:38:37;15.00;50.70
2226;DHT22;1119;48.288;8.726;2023-04-15T07:41:26;15.30;50.60
2226;DHT22;1119;48.288;8.726;2023-04-15T07:44:15;15.30;50.50
2226;DHT22;1119;48.288;8.726;2023-04-15T07:47:04;15.40;50.60
2226;DHT22;1119;48.288;8.726;2023-04-15T07:49:53;15.40;49.70
2226;DHT22;1119;48.288;8.726;2023-04-15T07:52:42;15.50;49.00
2226;DHT22;1119;48.288;8.726;2023-04-15T07:55:32;15.70;47.40
2226;DHT22;1119;48.288;8.726;2023-04-15T07:58:21;15.90;46.30
2226;DHT22;1119;48.288;8.726;2023-04-15T08:01:10;16.10;46.10
2226;DHT22;1119;48.288;8.726;2023-04-15T08:03:59;16.50;45.50
2226;DHT22;1119;48.288;8.726;2023-04-15T08:06:47;17.00;44.10
2226;DHT22;1119;48.288;8.726;2023-04-15T08:09:36;17.10;44.30
2226;DHT22;1119;48.288;8.726;2023-04-15T08:12:27;17.00;44.10
2226;DHT22;1119;48.288;8.726;2023-04-15T08:15:16;16.90;45.40
2226;DHT22;1119;48.288;8.726;2023-04-15T08:18:06;16.80;45.60
2226;DHT22;1119;48.288;8.726;2023-04-15T08:20:55;16.90;45.40
2226;DHT22;1119;48.288;8.726;2023-04-15T08:23:44;16.70;45.40
2226;DHT22;1119;48.288;8.726;2023-04-15T08:26:33;16.50;46.00
2226;DHT22;1119;48.288;8.726;2023-04-15T08:29:24;16.20;46.60
2226;DHT22;1119;48.288;8.726;2023-04-15T08:32:13;16.30;45.80
2226;DHT22;1119;48.288;8.726;2023-04-15T08:35:03;16.60;43.30
2226;DHT22;1119;48.288;8.726;2023-04-15T08:37:53;17.00;42.10
2226;DHT22;1119;48.288;8.726;2023-04-15T08:40:43;17.30;41.90
2226;DHT22;1119;48.288;8.726;2023-04-15T08:43:34;18.00;41.10
2226;DHT22;1119;48.288;8.726;2023-04-15T08:46:25;18.40;40.50
2226;DHT22;1119;48.288;8.726;2023-04-15T08:49:14;18.40;40.20
2226;DHT22;1119;48.288;8.726;2023-04-15T08:52:05;18.30;40.50
2226;DHT22;1119;48.288;8.726;2023-04-15T08:54:57;18.10;40.60
2226;DHT22;1119;48.288;8.726;2023-04-15T08:57:46;18.10;40.30
2226;DHT22;1119;48.288;8.726;2023-04-15T09:00:35;18.50;40.30
2226;DHT22;1119;48.288;8.726;2023-04-15T09:03:27;18.50;39.80
2226;DHT22;1119;48.288;8.726;2023-04-15T09:06:16;18.40;39.70
2226;DHT22;1119;48.288;8.726;2023-04-15T09:09:05;18.40;39.90
2226;DHT22;1119;48.288;8.726;2023-04-15T09:11:54;18.60;38.60
2226;DHT22;1119;48.288;8.726;2023-04-15T09:14:44;18.80;36.50
2226;DHT22;1119;48.288;8.726;2023-04-15T09:17:34;18.60;36.60
2226;DHT22;1119;48.288;8.726;2023-04-15T09:20:24;18.00;37.40
2226;DHT22;1119;48.288;8.726;2023-04-15T09:23:14;17.10;37.50
2226;DHT22;1119;48.288;8.726;2023-04-15T09:26:04;17.00;37.90
2226;DHT22;1119;48.288;8.726;2023-04-15T09:29:02;16.50;39.80
2226;DHT22;1119;48.288;8.726;2023-04-15T09:31:53;16.00;41.60
2226;DHT22;1119;48.288;8.726;2023-04-15T09:34:42;15.30;41.80
2226;DHT22;1119;48.288;8.726;2023-04-15T09:37:35;14.50;42.50
2226;DHT22;1119;48.288;8.726;2023-04-15T09:40:34;13.90;43.80
2226;DHT22;1119;48.288;8.726;2023-04-15T09:43:36;13.60;42.20
2226;DHT22;1119;48.288;8.726;2023-04-15T09:46:47;13.50;43.80
2226;DHT22;1119;48.288;8.726;2023-04-15T09:49:35;13.50;44.30
2226;DHT22;1119;48.288;8.726;2023-04-15T09:52:24;13.50;43.40
2226;DHT22;1119;48.288;8.726;2023-04-15T09:55:17;14.00;43.70
2226;DHT22;1119;48.288;8.726;2023-04-15T09:58:08;13.30;42.80
2226;DHT22;1119;48.288;8.726;2023-04-15T10:00:59;13.30;45.40
2226;DHT22;1119;48.288;8.726;2023-04-15T10:03:51;13.10;45.30
2226;DHT22;1119;48.288;8.726;2023-04-15T10:06:40;13.10;47.30
2226;DHT22;1119;48.288;8.726;2023-04-15T10:09:29;13.00;46.30
2226;DHT22;1119;48.288;8.726;2023-04-15T10:12:21;13.00;47.20
2226;DHT22;1119;48.288;8.726;2023-04-15T10:15:14;13.00;44.50
2226;DHT22;1119;48.288;8.726;2023-04-15T10:18:04;13.00;45.10
2226;DHT22;1119;48.288;8.726;2023-04-15T10:20:55;13.00;45.80
2226;DHT22;1119;48.288;8.726;2023-04-15T10:23:44;12.90;46.00
2226;DHT22;1119;48.288;8.726;2023-04-15T10:26:33;13.00;47.30
2226;DHT22;1119;48.288;8.726;2023-04-15T10:29:24;12.80;45.30
2226;DHT22;1119;48.288;8.726;2023-04-15T10:32:17;12.80;46.30
2226;DHT22;1119;48.288;8.726;2023-04-15T10:35:07;12.80;47.40
2226;DHT22;1119;48.288;8.726;2023-04-15T10:37:57;12.90;48.30
2226;DHT22;1119;48.288;8.726;2023-04-15T10:40:46;12.90;47.90
2226;DHT22;1119;48.288;8.726;2023-04-15T10:43:36;12.90;48.60
2226;DHT22;1119;48.288;8.726;2023-04-15T10:46:36;12.80;46.20
2226;DHT22;1119;48.288;8.726;2023-04-15T10:49:26;12.60;46.40
2226;DHT22;1119;48.288;8.726;2023-04-15T10:52:16;12.40;46.90
2226;DHT22;1119;48.288;8.726;2023-04-15T10:55:12;12.30;48.40
2226;DHT22;1119;48.288;8.726;2023-04-15T10:58:02;12.30;47.60
2226;DHT22;1119;48.288;8.726;2023-04-15T11:00:52;12.30;47.00
2226;DHT22;1119;48.288;8.726;2023-04-15T11:03:43;12.30;48.80
2226;DHT22;1119;48.288;8.726;2023-04-15T11:06:43;12.10;47.60
2226;DHT22;1119;48.288;8.726;2023-04-15T11:09:32;12.00;47.70
2226;DHT22;1119;48.288;8.726;2023-04-15T11:12:21;12.00;49.10
2226;DHT22;1119;48.288;8.726;2023-04-15T11:15:26;11.90;46.40
2226;DHT22;1119;48.288;8.726;2023-04-15T11:18:18;12.00;46.60
2226;DHT22;1119;48.288;8.726;2023-04-15T11:21:09;12.10;49.80
2226;DHT22;1119;48.288;8.726;2023-04-15T11:23:58;12.20;47.10
2226;DHT22;1119;48.288;8.726;2023-04-15T11:26:47;12.10;46.40
2226;DHT22;1119;48.288;8.726;2023-04-15T11:29:36;11.90;44.70
2226;DHT22;1119;48.288;8.726;2023-04-15T11:32:25;11.90;45.10
2226;DHT22;1119;48.288;8.726;2023-04-15T11:35:14;11.90;45.00
2226;DHT22;1119;48.288;8.726;2023-04-15T11:38:08;12.10;45.90
2226;DHT22;1119;48.288;8.726;2023-04-15T11:40:58;12.20;46.10
2226;DHT22;1119;48.288;8.726;2023-04-15T11:43:47;12.30;43.80
2226;DHT22;1119;48.288;8.726;2023-04-15T11:46:36;12.40;44.20
2226;DHT22;1119;48.288;8.726;2023-04-15T11:49:28;12.60;45.30
2226;DHT22;1119;48.288;8.726;2023-04-15T11:52:18;12.70;44.40
2226;DHT22;1119;48.288;8.726;2023-04-15T11:55:08;12.90;43.50
2226;DHT22;1119;48.288;8.726;2023-04-15T11:58:08;12.90;43.00
2226;DHT22;1119;48.288;8.726;2023-04-15T12:00:58;12.90;42.80
2226;DHT22;1119;48.288;8.726;2023-04-15T12:03:47;12.90;43.80
2226;DHT22;1119;48.288;8.726;2023-04-15T12:06:35;12.80;42.40
2226;DHT22;1119;48.288;8.726;2023-04-15T12:09:24;12.80;44.10
2226;DHT22;1119;48.288;8.726;2023-04-15T12:12:13;12.80;43.10
2226;DHT22;1119;48.288;8.726;2023-04-15T12:15:01;13.00;43.60
2226;DHT22;1119;48.288;8.726;2023-04-15T12:17:48;13.20;44.00
2226;DHT22;1119;48.288;8.726;2023-04-15T12:20:43;13.40;43.50
2226;DHT22;1119;48.288;8.726;2023-04-15T12:23:31;13.30;44.10
2226;DHT22;1119;48.288;8.726;2023-04-15T12:26:27;13.40;43.80
2226;DHT22;1119;48.288;8.726;2023-04-15T12:29:19;13.50;44.60
2226;DHT22;1119;48.288;8.726;2023-04-15T12:32:08;13.40;47.30
2226;DHT22;1119;48.288;8.726;2023-04-15T12:34:56;13.10;45.30
2226;DHT22;1119;48.288;8.726;2023-04-15T12:37:44;13.10;47.30
2226;DHT22;1119;48.288;8.726;2023-04-15T12:40:32;13.20;45.90
2226;DHT22;1119;48.288;8.726;2023-04-15T12:43:19;13.20;47.10
2226;DHT22;1119;48.288;8.726;2023-04-15T12:46:08;13.10;45.80
2226;DHT22;1119;48.288;8.726;2023-04-15T12:48:56;13.00;44.00
2226;DHT22;1119;48.288;8.726;2023-04-15T12:51:43;12.80;44.00
2226;DHT22;1119;48.288;8.726;2023-04-15T12:54:31;12.90;43.80
2226;DHT22;1119;48.288;8.726;2023-04-15T12:57:19;12.80;44.30
2226;DHT22;1119;48.288;8.726;2023-04-15T13:00:08;12.80;45.10
2226;DHT22;1119;48.288;8.726;2023-04-15T13:02:58;12.80;44.10
2226;DHT22;1119;48.288;8.726;2023-04-15T13:05:46;12.90;45.20
2226;DHT22;1119;48.288;8.726;2023-04-15T13:08:33;12.90;44.80
2226;DHT22;1119;48.288;8.726;2023-04-15T13:11:21;13.10;44.40
2226;DHT22;1119;48.288;8.726;2023-04-15T13:14:09;13.20;43.00
2226;DHT22;1119;48.288;8.726;2023-04-15T13:16:58;13.30;42.80
2226;DHT22;1119;48.288;8.726;2023-04-15T13:19:47;13.20;43.50
2226;DHT22;1119;48.288;8.726;2023-04-15T13:22:34;13.40;44.20
2226;DHT22;1119;48.288;8.726;2023-04-15T13:25:22;13.50;42.70
2226;DHT22;1119;48.288;8.726;2023-04-15T13:28:11;13.40;43.90
2226;DHT22;1119;48.288;8.726;2023-04-15T13:30:59;13.60;42.70
2226;DHT22;1119;48.288;8.726;2023-04-15T13:33:47;13.30;41.80
2226;DHT22;1119;48.288;8.726;2023-04-15T13:36:36;13.10;42.50
2226;DHT22;1119;48.288;8.726;2023-04-15T13:39:23;12.90;43.20
2226;DHT22;1119;48.288;8.726;2023-04-15T13:42:11;13.00;43.90
2226;DHT22;1119;48.288;8.726;2023-04-15T13:44:59;13.20;44.20
2226;DHT22;1119;48.288;8.726;2023-04-15T13:47:47;13.60;43.60
2226;DHT22;1119;48.288;8.726;2023-04-15T13:50:34;13.60;43.20
2226;DHT22;1119;48.288;8.726;2023-04-15T13:53:24;13.70;42.80
2226;DHT22;1119;48.288;8.726;2023-04-15T13:56:12;13.70;42.80
2226;DHT22;1119;48.288;8.726;2023-04-15T13:58:59;13.70;43.00
2226;DHT22;1119;48.288;8.726;2023-04-15T14:01:48;13.90;43.80
2226;DHT22;1119;48.288;8.726;2023-04-15T14:04:36;13.70;42.90
2226;DHT22;1119;48.288;8.726;2023-04-15T14:07:24;13.50;43.10
2226;DHT22;1119;48.288;8.726;2023-04-15T14:10:13;13.50;43.00
2226;DHT22;1119;48.288;8.726;2023-04-15T14:13:01;13.60;43.20
2226;DHT22;1119;48.288;8.726;2023-04-15T14:15:48;13.80;42.70
2226;DHT22;1119;48.288;8.726;2023-04-15T14:18:36;14.00;42.30
2226;DHT22;1119;48.288;8.726;2023-04-15T14:21:24;14.10;41.30
2226;DHT22;1119;48.288;8.726;2023-04-15T14:24:13;14.10;41.70
2226;DHT22;1119;48.288;8.726;2023-04-15T14:27:02;13.80;42.90
2226;DHT22;1119;48.288;8.726;2023-04-15T14:29:50;13.20;43.30
2226;DHT22;1119;48.288;8.726;2023-04-15T14:32:38;13.00;44.00
2226;DHT22;1119;48.288;8.726;2023-04-15T14:35:26;12.90;43.10
2226;DHT22;1119;48.288;8.726;2023-04-15T14:38:14;12.60;44.80
2226;DHT22;1119;48.288;8.726;2023-04-15T14:41:01;12.40;45.70
2226;DHT22;1119;48.288;8.726;2023-04-15T14:43:50;12.40;46.70
2226;DHT22;1119;48.288;8.726;2023-04-15T14:46:38;12.50;47.20
2226;DHT22;1119;48.288;8.726;2023-04-15T14:49:27;12.40;48.10
2226;DHT22;1119;48.288;8.726;2023-04-15T14:52:15;12.40;48.50
2226;DHT22;1119;48.288;8.726;2023-04-15T14:55:04;12.30;46.80
2226;DHT22;1119;48.288;8.726;2023-04-15T14:57:52;12.40;46.80
2226;DHT22;1119;48.288;8.726;2023-04-15T15:00:42;12.50;47.30
2226;DHT22;1119;48.288;8.726;2023-04-15T15:03:30;12.70;48.10
2226;DHT22;1119;48.288;8.726;2023-04-15T15:06:19;12.60;48.50
2226;DHT22;1119;48.288;8.726;2023-04-15T15:09:08;12.50;49.30
2226;DHT22;1119;48.288;8.726;2023-04-15T15:11:56;12.30;49.20
2226;DHT22;1119;48.288;8.726;2023-04-15T15:14:43;12.20;50.10
2226;DHT22;1119;48.288;8.726;2023-04-15T15:17:34;12.20;49.80
2226;DHT22;1119;48.288;8.726;2023-04-15T15:20:22;12.30;49.50
2226;DHT22;1119;48.288;8.726;2023-04-15T15:23:10;12.20;49.60
2226;DHT22;1119;48.288;8.726;2023-04-15T15:25:57;12.20;50.60
2226;DHT22;1119;48.288;8.726;2023-04-15T15:28:45;12.20;50.30
2226;DHT22;1119;48.288;8.726;2023-04-15T15:31:35;12.00;50.80
2226;DHT22;1119;48.288;8.726;2023-04-15T15:34:24;12.00;50.70
2226;DHT22;1119;48.288;8.726;2023-04-15T15:37:12;11.90;51.00
2226;DHT22;1119;48.288;8.726;2023-04-15T15:39:59;11.80;50.60
2226;DHT22;1119;48.288;8.726;2023-04-15T15:42:48;11.80;51.20
2226;DHT22;1119;48.288;8.726;2023-04-15T15:45:36;11.60;51.60
2226;DHT22;1119;48.288;8.726;2023-04-15T15:48:24;11.60;51.40
2226;DHT22;1119;48.288;8.726;2023-04-15T15:51:13;11.50;51.10
2226;DHT22;1119;48.288;8.726;2023-04-15T15:54:00;11.30;51.60
2226;DHT22;1119;48.288;8.726;2023-04-15T15:56:48;11.10;52.40
2226;DHT22;1119;48.288;8.726;2023-04-15T15:59:36;11.00;52.30
2226;DHT22;1119;48.288;8.726;2023-04-15T16:02:26;10.90;52.40
2226;DHT22;1119;48.288;8.726;2023-04-15T16:05:15;10.90;53.10
2226;DHT22;1119;48.288;8.726;2023-04-15T16:08:04;10.90;53.30
2226;DHT22;1119;48.288;8.726;2023-04-15T16:10:53;10.90;53.50
2226;DHT22;1119;48.288;8.726;2023-04-15T16:13:41;10.90;53.50
2226;DHT22;1119;48.288;8.726;2023-04-15T16:16:29;10.80;53.20
2226;DHT22;1119;48.288;8.726;2023-04-15T16:19:16;10.80;53.60
2226;DHT22;1119;48.288;8.726;2023-04-15T16:22:04;10.90;53.90
2226;DHT22;1119;48.288;8.726;2023-04-15T16:24:53;10.90;54.20
2226;DHT22;1119;48.288;8.726;2023-04-15T16:27:41;10.90;53.70
2226;DHT22;1119;48.288;8.726;2023-04-15T16:30:29;10.90;53.60
2226;DHT22;1119;48.288;8.726;2023-04-15T16:33:17;11.00;54.10
2226;DHT22;1119;48.288;8.726;2023-04-15T16:36:05;11.00;53.90
2226;DHT22;1119;48.288;8.726;2023-04-15T16:38:53;11.00;55.10
2226;DHT22;1119;48.288;8.726;2023-04-15T16:41:42;10.90;57.40
2226;DHT22;1119;48.288;8.726;2023-04-15T16:44:30;11.00;57.50
2226;DHT22;1119;48.288;8.726;2023-04-15T16:47:17;10.70;58.30
2226;DHT22;1119;48.288;8.726;2023-04-15T16:50:06;10.30;59.60
2226;DHT22;1119;48.288;8.726;2023-04-15T16:52:54;10.10;61.20
2226;DHT22;1119;48.288;8.726;2023-04-15T16:55:42;10.00;63.50
2226;DHT22;1119;48.288;8.726;2023-04-15T16:58:31;9.90;64.90
2226;DHT22;1119;48.288;8.726;2023-04-15T17:01:19;10.00;65.00
2226;DHT22;1119;48.288;8.726;2023-04-15T17:04:07;10.10;64.90
2226;DHT22;1119;48.288;8.726;2023-04-15T17:06:55;10.20;64.80
2226;DHT22;1119;48.288;8.726;2023-04-15T17:09:43;10.30;64.30
2226;DHT22;1119;48.288;8.726;2023-04-15T17:12:31;10.40;64.10
2226;DHT22;1119;48.288;8.726;2023-04-15T17:15:20;10.60;64.00
2226;DHT22;1119;48.288;8.726;2023-04-15T17:18:15;10.70;63.40
2226;DHT22;1119;48.288;8.726;2023-04-15T17:21:07;10.80;63.60
2226;DHT22;1119;48.288;8.726;2023-04-15T17:23:57;10.90;65.00
2226;DHT22;1119;48.288;8.726;2023-04-15T17:26:47;11.00;64.60
2226;DHT22;1119;48.288;8.726;2023-04-15T17:29:35;11.00;64.80
2226;DHT22;1119;48.288;8.726;2023-04-15T17:32:27;11.10;64.50
2226;DHT22;1119;48.288;8.726;2023-04-15T17:35:39;11.10;64.90
2226;DHT22;1119;48.288;8.726;2023-04-15T17:38:46;11.10;65.70
2226;DHT22;1119;48.288;8.726;2023-04-15T17:41:56;11.10;65.70
2226;DHT22;1119;48.288;8.726;2023-04-15T17:45:04;11.00;66.70
2226;DHT22;1119;48.288;8.726;2023-04-15T17:48:14;11.00;66.40
2226;DHT22;1119;48.288;8.726;2023-04-15T17:51:21;11.00;67.00
2226;DHT22;1119;48.288;8.726;2023-04-15T17:54:29;11.00;68.00
2226;DHT22;1119;48.288;8.726;2023-04-15T17:57:36;11.00;68.20
2226;DHT22;1119;48.288;8.726;2023-04-15T18:00:44;10.80;66.50
2226;DHT22;1119;48.288;8.726;2023-04-15T18:03:53;10.60;67.50
2226;DHT22;1119;48.288;8.726;2023-04-15T18:07:01;10.50;69.30
2226;DHT22;1119;48.288;8.726;2023-04-15T18:10:08;10.30;70.60
2226;DHT22;1119;48.288;8.726;2023-04-15T18:13:16;10.10;71.40
2226;DHT22;1119;48.288;8.726;2023-04-15T18:16:24;9.90;74.70
2226;DHT22;1119;48.288;8.726;2023-04-15T18:19:33;9.70;77.00
2226;DHT22;1119;48.288;8.726;2023-04-15T18:22:21;9.50;75.60
2226;DHT22;1119;48.288;8.726;2023-04-15T18:25:09;9.40;77.80
2226;DHT22;1119;48.288;8.726;2023-04-15T18:27:57;9.20;77.40
2226;DHT22;1119;48.288;8.726;2023-04-15T18:30:44;9.20;80.00
2226;DHT22;1119;48.288;8.726;2023-04-15T18:33:32;9.10;81.40
2226;DHT22;1119;48.288;8.726;2023-04-15T18:36:22;9.00;82.00